createdAt,value
2019-01-14T00:00:32.491Z,97569.59
2019-01-14T00:04:36.896Z,97561.75
2019-01-14T00:08:41.231Z,97562.63
2019-01-14T00:12:45.608Z,97571.30
2019-01-14T00:16:49.960Z,97576.11
2019-01-14T00:20:54.265Z,97581.77
2019-01-14T00:24:59.406Z,97585.25
2019-01-14T00:29:03.937Z,97582.55
2019-01-14T00:33:08.250Z,97594.75
2019-01-14T00:37:12.629Z,97592.96
2019-01-14T00:41:16.905Z,97602.52
2019-01-14T00:45:21.312Z,97613.80
2019-01-14T00:49:25.663Z,97602.36
2019-01-14T00:53:30.034Z,97644.53
2019-01-14T00:57:35.420Z,97637.00
2019-01-14T01:01:39.771Z,97649.97
2019-01-14T01:05:44.028Z,97640.27
2019-01-14T01:09:49.576Z,97664.68
2019-01-14T01:13:53.942Z,97689.09
2019-01-14T01:17:59.370Z,97686.08
2019-01-14T01:22:03.762Z,97697.03
2019-01-14T01:26:09.167Z,97716.70
2019-01-14T01:30:15.916Z,97736.81
2019-01-14T01:34:20.211Z,97715.92
2019-01-14T01:38:27.072Z,97715.14
2019-01-14T01:42:31.334Z,97724.34
2019-01-14T01:46:36.213Z,97687.76
2019-01-14T01:50:43.030Z,97687.41
2019-01-14T01:54:48.376Z,97716.19
2019-01-14T01:58:52.709Z,97713.14
2019-01-14T02:02:59.085Z,97709.69
2019-01-14T02:07:05.041Z,97725.87
2019-01-14T02:11:09.317Z,97745.48
2019-01-14T02:15:14.797Z,97752.09
2019-01-14T02:19:19.668Z,97748.22
2019-01-14T02:23:24.307Z,97749.19
2019-01-14T02:27:28.581Z,97764.06
2019-01-14T02:31:35.264Z,97759.33
2019-01-14T02:35:41.652Z,97755.91
2019-01-14T02:39:46.013Z,97759.91
2019-01-14T02:43:50.303Z,97772.55
2019-01-14T02:47:57.597Z,97766.84
2019-01-14T02:52:01.836Z,97776.44
2019-01-14T02:56:49.716Z,97773.82
2019-01-14T03:01:25.664Z,97775.96
2019-01-14T03:15:16.714Z,97780.84
2019-01-14T03:19:21.009Z,97775.64
2019-01-14T03:23:25.298Z,97784.81
2019-01-14T03:27:30.463Z,97790.52
2019-01-14T03:31:34.754Z,97776.62
2019-01-14T03:35:58.070Z,97779.23
2019-01-14T03:40:02.883Z,97784.46
2019-01-14T03:44:07.863Z,97805.78
2019-01-14T03:48:13.429Z,97790.09
2019-01-14T03:52:17.717Z,97803.60
2019-01-14T03:56:21.992Z,97817.08
2019-01-14T04:00:26.389Z,97817.50
2019-01-14T04:04:34.211Z,97785.21
2019-01-14T04:08:38.507Z,97787.77
2019-01-14T04:13:01.913Z,97788.19
2019-01-14T04:17:06.161Z,97789.42
2019-01-14T04:21:30.080Z,97791.11
2019-01-14T04:25:34.481Z,97801.97
2019-01-14T04:29:38.938Z,97813.77
2019-01-14T04:34:05.100Z,97822.09
2019-01-14T04:38:12.863Z,97833.03
2019-01-14T04:42:36.201Z,97828.72
2019-01-14T04:46:40.632Z,97829.14
2019-01-14T04:51:04.417Z,97826.06
2019-01-14T04:55:27.819Z,97824.34
2019-01-14T04:59:35.209Z,97832.59
2019-01-14T05:03:40.105Z,97839.14
2019-01-14T05:07:44.368Z,97848.77
2019-01-14T05:11:51.461Z,97853.99
2019-01-14T05:16:00.146Z,97848.83
2019-01-14T05:20:06.317Z,97838.30
2019-01-14T05:24:10.988Z,97836.52
2019-01-14T05:28:15.310Z,97851.31
2019-01-14T05:32:19.884Z,97854.80
2019-01-14T05:36:24.180Z,97876.20
2019-01-14T05:40:28.588Z,97875.33
2019-01-14T05:44:32.935Z,97878.37
2019-01-14T05:48:37.169Z,97912.80
2019-01-14T05:52:41.477Z,97910.22
2019-01-14T05:56:45.949Z,97915.08
2019-01-14T06:00:50.771Z,97922.95
2019-01-14T06:04:55.065Z,97918.16
2019-01-14T06:08:59.368Z,97900.73
2019-01-14T06:13:03.973Z,97909.48
2019-01-14T06:17:08.241Z,97913.80
2019-01-14T06:21:12.519Z,97931.25
2019-01-14T06:25:17.245Z,97956.50
2019-01-14T06:29:21.515Z,98011.51
2019-01-14T06:33:25.900Z,98038.83
2019-01-14T06:37:30.115Z,98064.36
2019-01-14T06:41:34.506Z,98076.17
2019-01-14T06:55:02.802Z,98082.24
2019-01-14T06:59:07.379Z,98077.03
2019-01-14T07:03:12.653Z,98093.50
2019-01-14T07:07:16.855Z,98108.73
2019-01-14T07:11:21.391Z,98108.70
2019-01-14T07:15:25.957Z,98133.93
2019-01-14T07:19:30.202Z,98133.48
2019-01-14T07:23:34.511Z,98138.26
2019-01-14T07:27:38.884Z,98142.58
2019-01-14T07:31:43.132Z,98152.98
2019-01-14T07:35:47.450Z,98163.42
2019-01-14T07:39:51.726Z,98172.96
2019-01-14T07:43:56.123Z,98179.45
2019-01-14T07:48:00.392Z,98183.80
2019-01-14T07:52:04.837Z,98199.02
2019-01-14T07:56:09.524Z,98212.06
2019-01-14T08:00:24.580Z,98216.39
2019-01-14T08:04:28.887Z,98234.67
2019-01-14T08:08:33.184Z,98229.44
2019-01-14T08:12:37.369Z,98243.81
2019-01-14T08:16:41.625Z,98223.41
2019-01-14T08:20:45.903Z,98241.23
2019-01-14T08:24:50.131Z,98244.74
2019-01-14T08:28:54.731Z,98256.91
2019-01-14T08:32:59.486Z,98250.38
2019-01-14T08:37:04.619Z,98258.17
2019-01-14T08:49:57.688Z,98280.73
2019-01-14T08:54:01.983Z,98273.80
2019-01-14T08:58:06.295Z,98295.55
2019-01-14T09:02:10.657Z,98312.53
2019-01-14T09:06:15.051Z,98315.11
2019-01-14T09:10:26.375Z,98329.06
2019-01-14T09:14:30.640Z,98325.11
2019-01-14T09:18:34.968Z,98346.01
2019-01-14T09:22:39.189Z,98365.61
2019-01-14T09:26:51.452Z,98353.81
2019-01-14T09:30:55.985Z,98369.94
2019-01-14T09:35:00.299Z,98386.06
2019-01-14T09:39:08.015Z,98395.21
2019-01-14T09:43:12.286Z,98395.63
2019-01-14T09:47:16.598Z,98393.05
2019-01-14T09:51:20.945Z,98392.15
2019-01-14T09:55:25.164Z,98413.91
2019-01-14T09:59:29.460Z,98418.28
2019-01-14T10:03:33.856Z,98422.62
2019-01-14T10:07:38.071Z,98402.16
2019-01-14T10:11:42.340Z,98415.22
2019-01-14T10:15:46.649Z,98407.83
2019-01-14T10:19:50.954Z,98426.09
2019-01-14T10:23:55.246Z,98447.45
2019-01-14T10:27:59.590Z,98447.00
2019-01-14T10:32:04.004Z,98455.29
2019-01-14T10:36:08.291Z,98459.65
2019-01-14T10:40:13.666Z,98470.99
2019-01-14T10:44:17.945Z,98497.56
2019-01-14T10:48:22.174Z,98496.70
2019-01-14T10:52:26.464Z,98513.67
2019-01-14T10:56:30.728Z,98510.96
2019-01-14T11:00:35.324Z,98518.71
2019-01-14T11:04:39.659Z,98504.33
2019-01-14T11:08:43.949Z,98481.23
2019-01-14T11:12:48.378Z,98470.83
2019-01-14T11:16:53.668Z,98470.41
2019-01-14T11:20:58.249Z,98467.81
2019-01-14T11:25:02.643Z,98468.26
2019-01-14T11:29:06.938Z,98466.10
2019-01-14T11:33:11.255Z,98466.54
2019-01-14T11:37:15.580Z,98470.48
2019-01-14T11:41:20.725Z,98468.75
2019-01-14T11:45:24.992Z,98470.48
2019-01-14T11:49:29.259Z,98472.24
2019-01-14T11:53:33.704Z,98492.31
2019-01-14T11:57:38.034Z,98492.31
2019-01-14T12:01:42.321Z,98475.38
2019-01-14T12:05:46.601Z,98465.34
2019-01-14T12:09:50.865Z,98472.30
2019-01-14T12:13:55.232Z,98477.55
2019-01-14T12:17:59.518Z,98479.27
2019-01-14T12:22:03.801Z,98479.69
2019-01-14T12:26:08.188Z,98493.20
2019-01-14T12:30:21.635Z,98493.66
2019-01-14T12:34:26.032Z,98507.59
2019-01-14T12:38:30.356Z,98507.12
2019-01-14T12:42:35.495Z,98508.44
2019-01-14T12:46:39.813Z,98518.02
2019-01-14T12:50:44.082Z,98508.45
2019-01-14T12:54:48.312Z,98507.15
2019-01-14T12:58:52.540Z,98522.38
2019-01-14T13:02:58.761Z,98534.16
2019-01-14T13:07:03.092Z,98542.43
2019-01-14T13:11:07.316Z,98553.73
2019-01-14T13:15:14.449Z,98565.91
2019-01-14T13:19:18.626Z,98542.72
2019-01-14T13:23:23.124Z,98549.12
2019-01-14T13:27:27.468Z,98549.53
2019-01-14T13:31:31.865Z,98542.98
2019-01-14T13:35:36.441Z,98545.59
2019-01-14T13:39:40.629Z,98539.52
2019-01-14T13:43:44.837Z,98538.63
2019-01-14T13:47:49.083Z,98541.27
2019-01-14T13:51:53.322Z,98541.70
2019-01-14T13:55:59.553Z,98549.96
2019-01-14T14:00:04.281Z,98554.28
2019-01-14T14:04:08.538Z,98570.38
2019-01-14T14:08:12.657Z,98576.00
2019-01-14T14:12:16.875Z,98579.91
2019-01-14T14:16:21.058Z,98598.97
2019-01-14T14:20:25.186Z,98608.03
2019-01-14T14:24:29.331Z,98614.52
2019-01-14T14:28:33.489Z,98617.55
2019-01-14T14:32:37.604Z,98611.43
2019-01-14T14:36:42.085Z,98607.06
2019-01-14T14:40:46.564Z,98617.92
2019-01-14T14:44:50.694Z,98625.62
2019-01-14T14:48:54.866Z,98627.41
2019-01-14T14:52:59.431Z,98638.15
2019-01-14T14:57:04.015Z,98631.53
2019-01-14T15:01:08.395Z,98646.65
2019-01-14T15:05:12.795Z,98656.20
2019-01-14T15:09:22.918Z,98659.66
2019-01-14T15:13:28.163Z,98675.70
2019-01-14T15:17:42.688Z,98678.69
2019-01-14T15:21:58.258Z,98675.97
2019-01-14T15:26:12.649Z,98681.11
2019-01-14T15:30:29.624Z,98681.48
2019-01-14T15:34:34.675Z,98690.09
2019-01-14T15:38:40.426Z,98691.77
2019-01-14T15:42:45.079Z,98709.56
2019-01-14T15:46:50.591Z,98702.59
2019-01-14T15:51:01.744Z,98718.23
2019-01-14T15:59:44.472Z,98738.05
2019-01-14T16:04:02.541Z,98763.12
2019-01-14T16:08:07.606Z,98760.50
2019-01-14T16:12:14.148Z,98747.64
2019-01-14T16:16:19.367Z,98748.83
2019-01-14T16:20:51.360Z,98761.28
2019-01-14T16:25:00.786Z,98769.03
2019-01-14T16:29:13.711Z,98777.72
2019-01-14T16:33:34.122Z,98772.09
2019-01-14T16:38:10.186Z,98778.09
2019-01-14T16:42:20.492Z,98771.63
2019-01-14T16:46:35.009Z,98780.73
2019-01-14T16:50:42.528Z,98791.09
2019-01-14T16:54:52.517Z,98813.13
2019-01-14T16:58:58.489Z,98827.40
2019-01-14T17:03:05.570Z,98834.33
2019-01-14T17:07:11.232Z,98837.86
2019-01-14T17:11:16.245Z,98849.19
2019-01-14T17:15:21.205Z,98854.38
2019-01-14T17:19:31.512Z,98861.25
2019-01-14T17:23:36.639Z,98878.55
2019-01-14T17:27:42.223Z,98880.28
2019-01-14T17:32:19.273Z,98909.81
2019-01-14T17:36:26.745Z,98906.31
2019-01-14T17:40:40.207Z,98916.34
2019-01-14T17:44:44.432Z,98929.71
2019-01-14T17:48:48.775Z,98935.81
2019-01-14T17:52:53.062Z,98947.91
2019-01-14T17:56:57.595Z,98955.60
2019-01-14T18:01:02.190Z,98966.44
2019-01-14T18:05:06.622Z,98968.17
2019-01-14T18:09:10.910Z,98982.06
2019-01-14T18:13:15.256Z,99000.66
2019-01-14T18:17:24.910Z,99001.09
2019-01-14T18:21:29.356Z,98994.05
2019-01-14T18:49:04.963Z,99061.45
2019-01-14T18:53:10.210Z,99048.94
2019-01-14T18:57:14.452Z,99052.10
2019-01-14T19:01:22.809Z,99033.58
2019-01-14T19:05:27.075Z,99051.84
2019-01-14T19:09:31.337Z,99054.00
2019-01-14T19:13:35.573Z,99076.16
2019-01-14T19:17:40.816Z,99080.52
2019-01-14T19:21:45.043Z,99081.00
2019-01-14T19:25:49.283Z,99107.53
2019-01-14T19:29:53.460Z,99122.68
2019-01-14T19:33:57.694Z,99123.98
2019-01-14T19:38:01.947Z,99136.14
2019-01-14T19:42:06.256Z,99172.11
2019-01-14T19:46:15.315Z,99172.94
2019-01-14T19:50:22.082Z,99185.44
2019-01-14T19:54:45.869Z,99188.28
2019-01-14T19:58:52.268Z,99202.95
2019-01-14T20:03:00.632Z,99217.97
2019-01-14T20:07:10.513Z,99225.66
2019-01-14T20:11:13.193Z,99242.00
2019-01-14T20:15:18.638Z,99251.52
2019-01-14T20:23:40.166Z,99316.94
2019-01-14T20:27:44.530Z,99328.90
2019-01-14T20:31:51.210Z,99345.88
2019-01-14T20:35:56.410Z,99349.23
2019-01-14T20:40:00.690Z,99355.22
2019-01-14T20:44:05.600Z,99359.08
2019-01-14T20:48:09.885Z,99375.52
2019-01-14T20:52:14.029Z,99372.45
2019-01-14T20:56:18.249Z,99382.64
2019-01-14T21:00:24.685Z,99386.78
2019-01-14T21:04:28.880Z,99398.80
2019-01-14T21:08:33.073Z,99394.92
2019-01-14T21:12:37.318Z,99397.45
2019-01-14T21:16:41.618Z,99401.51
2019-01-14T21:20:45.896Z,99403.29
2019-01-14T21:24:50.232Z,99401.99
2019-01-14T21:28:54.503Z,99421.87
2019-01-14T21:32:58.838Z,99432.36
2019-01-14T21:37:03.113Z,99442.36
2019-01-14T21:41:07.305Z,99444.58
2019-01-14T21:45:13.135Z,99450.25
2019-01-14T21:49:17.429Z,99455.55
2019-01-14T21:53:21.815Z,99460.30
2019-01-14T21:57:26.279Z,99459.13
2019-01-14T22:01:30.487Z,99467.83
2019-01-14T22:05:34.739Z,99478.14
2019-01-14T22:09:39.085Z,99484.87
2019-01-14T22:13:43.356Z,99485.23
2019-01-14T22:17:47.583Z,99490.78
2019-01-14T22:21:51.814Z,99496.20
2019-01-14T22:25:56.092Z,99504.34
2019-01-14T22:30:00.317Z,99501.14
2019-01-14T22:34:04.545Z,99506.63
2019-01-14T22:38:08.774Z,99516.93
2019-01-14T22:42:13.025Z,99525.12
2019-01-14T22:46:17.466Z,99534.98
2019-01-14T22:50:21.663Z,99536.72
2019-01-14T22:54:25.869Z,99541.72
2019-01-14T22:58:30.035Z,99534.73
2019-01-14T23:02:34.187Z,99528.73
2019-01-14T23:06:38.338Z,99537.73
2019-01-14T23:10:42.481Z,99550.20
2019-01-14T23:14:46.628Z,99546.73
2019-01-14T23:18:50.916Z,99549.45
2019-01-14T23:22:55.118Z,99548.97
2019-01-14T23:26:59.285Z,99554.16
2019-01-14T23:31:03.429Z,99550.27
2019-01-14T23:35:07.758Z,99556.38
2019-01-14T23:39:11.916Z,99551.20
2019-01-14T23:43:16.100Z,99550.78
2019-01-14T23:47:20.266Z,99551.69
2019-01-14T23:51:24.434Z,99549.45
2019-01-14T23:55:28.932Z,99548.97
2019-01-14T23:59:33.090Z,99545.57
